createdAt,value
2017-12-30T00:00:12.969Z,5.16
2017-12-30T00:01:21.573Z,5.16
2017-12-30T00:02:30.163Z,5.19
2017-12-30T00:03:38.766Z,5.19
2017-12-30T00:04:47.369Z,5.19
2017-12-30T00:05:55.961Z,5.33
2017-12-30T00:07:04.562Z,5.37
2017-12-30T00:08:13.174Z,5.33
2017-12-30T00:09:21.764Z,5.34
2017-12-30T00:10:30.368Z,5.37
2017-12-30T00:11:38.961Z,5.38
2017-12-30T00:12:47.563Z,5.38
2017-12-30T00:13:56.169Z,5.34
2017-12-30T00:15:04.758Z,5.41
2017-12-30T00:16:13.363Z,5.31
2017-12-30T00:17:21.970Z,5.37
2017-12-30T00:18:30.820Z,5.36
2017-12-30T00:19:39.419Z,5.37
2017-12-30T00:20:48.035Z,5.37
2017-12-30T00:21:56.625Z,5.38
2017-12-30T00:23:05.219Z,5.4
2017-12-30T00:24:13.822Z,5.34
2017-12-30T00:25:22.693Z,5.36
2017-12-30T00:26:31.303Z,5.43
2017-12-30T00:27:39.893Z,5.38
2017-12-30T00:28:48.487Z,5.44
2017-12-30T00:29:57.100Z,5.44
2017-12-30T00:31:05.692Z,5.46
2017-12-30T00:32:14.287Z,5.41
2017-12-30T00:33:22.896Z,5.46
2017-12-30T00:34:31.495Z,5.51
2017-12-30T00:35:40.084Z,5.43
2017-12-30T00:36:48.696Z,5.54
2017-12-30T00:37:57.293Z,5.51
2017-12-30T00:39:05.897Z,5.54
2017-12-30T00:40:14.490Z,5.47
2017-12-30T00:41:23.086Z,5.47
2017-12-30T00:42:31.697Z,5.46
2017-12-30T00:43:40.296Z,5.55
2017-12-30T00:44:48.880Z,5.54
2017-12-30T00:45:57.494Z,5.49
2017-12-30T00:47:06.097Z,5.51
2017-12-30T00:48:14.689Z,5.62
2017-12-30T00:49:23.296Z,5.51
2017-12-30T00:50:31.897Z,5.54
2017-12-30T00:51:40.487Z,5.47
2017-12-30T00:52:49.086Z,5.49
2017-12-30T00:53:57.681Z,5.51
2017-12-30T00:55:06.553Z,5.51
2017-12-30T00:56:15.153Z,5.52
2017-12-30T00:57:23.742Z,5.56
2017-12-30T00:58:32.347Z,5.47
2017-12-30T00:59:40.949Z,5.54
2017-12-30T01:00:49.539Z,5.58
2017-12-30T01:01:58.145Z,5.49
2017-12-30T01:03:06.759Z,5.54
2017-12-30T01:04:15.348Z,5.58
2017-12-30T01:05:23.947Z,5.56
2017-12-30T01:06:32.556Z,5.67
2017-12-30T01:07:41.153Z,5.67
2017-12-30T01:08:49.762Z,5.59
2017-12-30T01:09:58.352Z,5.62
2017-12-30T01:11:06.955Z,5.64
2017-12-30T01:12:15.562Z,5.64
2017-12-30T01:13:24.152Z,5.67
2017-12-30T01:14:32.746Z,5.58
2017-12-30T01:15:41.359Z,5.67
2017-12-30T01:16:49.948Z,5.61
2017-12-30T01:17:58.541Z,5.59
2017-12-30T01:19:07.153Z,5.65
2017-12-30T01:20:16.019Z,5.67
2017-12-30T01:21:24.609Z,5.62
2017-12-30T01:22:33.212Z,5.58
2017-12-30T01:23:42.073Z,5.56
2017-12-30T01:24:50.685Z,5.55
2017-12-30T01:25:59.536Z,5.55
2017-12-30T01:27:08.130Z,5.54
2017-12-30T01:28:16.740Z,5.52
2017-12-30T01:29:25.336Z,5.47
2017-12-30T01:30:33.926Z,5.47
2017-12-30T01:31:42.539Z,5.51
2017-12-30T01:32:51.145Z,5.46
2017-12-30T01:33:59.731Z,5.52
2017-12-30T01:35:08.337Z,5.51
2017-12-30T01:36:16.940Z,5.51
2017-12-30T01:37:25.540Z,5.64
2017-12-30T01:38:34.139Z,5.55
2017-12-30T01:39:42.728Z,5.64
2017-12-30T01:40:51.340Z,5.61
2017-12-30T01:41:59.938Z,5.64
2017-12-30T01:43:08.529Z,5.61
2017-12-30T01:44:17.133Z,5.61
2017-12-30T01:45:25.743Z,5.59
2017-12-30T01:46:34.327Z,5.64
2017-12-30T01:47:42.929Z,5.59
2017-12-30T01:48:51.541Z,5.64
2017-12-30T01:50:00.134Z,5.56
2017-12-30T01:51:08.732Z,5.55
2017-12-30T01:52:17.342Z,5.51
2017-12-30T01:53:25.935Z,5.49
2017-12-30T01:54:34.526Z,5.51
2017-12-30T01:55:43.391Z,5.54
2017-12-30T01:56:51.989Z,5.61
2017-12-30T01:58:00.579Z,5.47
2017-12-30T01:59:09.189Z,5.55
2017-12-30T02:00:17.792Z,5.61
2017-12-30T02:01:26.380Z,5.56
2017-12-30T02:02:34.986Z,5.65
2017-12-30T02:03:43.591Z,5.55
2017-12-30T02:04:52.184Z,5.61
2017-12-30T02:06:00.786Z,5.65
2017-12-30T02:07:09.374Z,5.65
2017-12-30T02:08:17.987Z,5.59
2017-12-30T02:09:26.592Z,5.64
2017-12-30T02:10:35.181Z,5.64
2017-12-30T02:11:43.782Z,5.65
2017-12-30T02:12:52.389Z,5.65
2017-12-30T02:14:00.978Z,5.61
2017-12-30T02:15:09.578Z,5.7
2017-12-30T02:16:18.192Z,5.67
2017-12-30T02:17:26.780Z,5.61
2017-12-30T02:18:35.377Z,5.62
2017-12-30T02:19:43.983Z,5.67
2017-12-30T02:20:52.580Z,5.59
2017-12-30T02:22:01.189Z,5.62
2017-12-30T02:23:09.777Z,5.62
2017-12-30T02:24:18.379Z,5.61
2017-12-30T02:25:26.987Z,5.62
2017-12-30T02:26:35.576Z,5.67
2017-12-30T02:27:44.176Z,5.55
2017-12-30T02:28:52.792Z,5.52
2017-12-30T02:30:01.381Z,5.49
2017-12-30T02:31:09.974Z,5.52
2017-12-30T02:32:18.587Z,5.51
2017-12-30T02:33:27.182Z,5.55
2017-12-30T02:34:35.773Z,5.55
2017-12-30T02:35:44.382Z,5.64
2017-12-30T02:36:52.978Z,5.56
2017-12-30T02:38:01.588Z,5.65
2017-12-30T02:39:10.183Z,5.72
2017-12-30T02:40:18.776Z,5.61
2017-12-30T02:41:27.387Z,5.55
2017-12-30T02:42:35.985Z,5.65
2017-12-30T02:43:44.571Z,5.64
2017-12-30T02:44:53.183Z,5.51
2017-12-30T02:46:01.785Z,5.54
2017-12-30T02:47:10.628Z,5.52
2017-12-30T02:48:19.237Z,5.52
2017-12-30T02:49:27.836Z,5.52
2017-12-30T02:50:36.438Z,5.55
2017-12-30T02:51:45.038Z,5.51
2017-12-30T02:52:53.625Z,5.58
2017-12-30T02:54:02.236Z,5.61
2017-12-30T02:55:10.840Z,5.54
2017-12-30T02:56:19.434Z,5.64
2017-12-30T02:57:28.039Z,5.67
2017-12-30T02:58:36.648Z,5.58
2017-12-30T02:59:45.236Z,5.67
2017-12-30T03:00:53.836Z,5.67
2017-12-30T03:02:02.445Z,5.64
2017-12-30T03:03:11.035Z,5.59
2017-12-30T03:04:19.634Z,5.62
2017-12-30T03:05:28.231Z,5.59
2017-12-30T03:06:36.838Z,5.59
2017-12-30T03:07:45.449Z,5.56
2017-12-30T03:08:54.039Z,5.55
2017-12-30T03:10:02.641Z,5.4
2017-12-30T03:11:11.248Z,5.43
2017-12-30T03:12:19.836Z,5.41
2017-12-30T03:13:28.431Z,5.4
2017-12-30T03:14:37.041Z,5.38
2017-12-30T03:15:45.634Z,5.38
2017-12-30T03:16:54.225Z,5.25
2017-12-30T03:18:02.840Z,5.19
2017-12-30T03:19:11.694Z,5.12
2017-12-30T03:20:20.302Z,5.22
2017-12-30T03:21:28.888Z,5.12
2017-12-30T03:22:37.489Z,5.08
2017-12-30T03:23:46.098Z,5.08
2017-12-30T03:24:54.690Z,5.07
2017-12-30T03:26:03.285Z,5.13
2017-12-30T03:27:11.895Z,5.02
2017-12-30T03:28:20.495Z,4.94
2017-12-30T03:29:29.076Z,4.92
2017-12-30T03:30:37.947Z,4.95
2017-12-30T03:31:46.550Z,4.89
2017-12-30T03:32:55.139Z,4.94
2017-12-30T03:34:03.744Z,4.92
2017-12-30T03:35:12.331Z,4.92
2017-12-30T03:36:21.203Z,4.92
2017-12-30T03:37:29.802Z,4.89
2017-12-30T03:38:38.393Z,4.94
2017-12-30T03:39:47.002Z,4.9
2017-12-30T03:40:55.599Z,4.98
2017-12-30T03:42:04.190Z,4.87
2017-12-30T03:43:13.051Z,4.94
2017-12-30T03:44:21.658Z,4.86
2017-12-30T03:45:30.502Z,4.83
2017-12-30T03:46:39.369Z,4.89
2017-12-30T03:47:47.980Z,4.9
2017-12-30T03:48:56.567Z,4.92
2017-12-30T03:50:05.166Z,4.82
2017-12-30T03:51:13.775Z,4.71
2017-12-30T03:52:22.366Z,4.83
2017-12-30T03:53:30.961Z,4.78
2017-12-30T03:54:39.569Z,4.75
2017-12-30T03:55:48.428Z,4.71
2017-12-30T03:56:57.015Z,4.64
2017-12-30T03:58:05.623Z,4.71
2017-12-30T03:59:14.226Z,4.68
2017-12-30T04:00:23.073Z,4.64
2017-12-30T04:01:31.677Z,4.67
2017-12-30T04:02:40.282Z,4.66
2017-12-30T04:03:48.884Z,4.57
2017-12-30T04:04:57.478Z,4.58
2017-12-30T04:06:06.067Z,4.56
2017-12-30T04:07:14.673Z,4.48
2017-12-30T04:08:23.529Z,4.45
2017-12-30T04:09:32.120Z,4.39
2017-12-30T04:10:40.726Z,4.42
2017-12-30T04:11:49.590Z,4.4
2017-12-30T04:12:58.178Z,4.39
2017-12-30T04:14:06.780Z,4.39
2017-12-30T04:15:15.387Z,4.39
2017-12-30T04:16:23.977Z,4.43
2017-12-30T04:17:32.569Z,4.4
2017-12-30T04:18:41.166Z,4.5
2017-12-30T04:19:49.779Z,4.46
2017-12-30T04:20:58.642Z,4.5
2017-12-30T04:22:07.229Z,4.49
2017-12-30T04:23:15.832Z,4.46
2017-12-30T04:24:24.438Z,4.42
2017-12-30T04:25:33.033Z,4.38
2017-12-30T04:26:41.633Z,4.4
2017-12-30T04:27:50.240Z,4.57
2017-12-30T04:28:58.835Z,4.57
2017-12-30T04:30:07.430Z,4.56
2017-12-30T04:31:16.040Z,4.56
2017-12-30T04:32:24.637Z,4.56
2017-12-30T04:33:33.245Z,4.57
2017-12-30T04:34:41.832Z,4.57
2017-12-30T04:35:50.425Z,4.53
2017-12-30T04:36:59.035Z,4.53
2017-12-30T04:38:07.627Z,4.61
2017-12-30T04:39:16.222Z,4.52
2017-12-30T04:40:24.831Z,4.49
2017-12-30T04:41:33.428Z,4.52
2017-12-30T04:42:42.018Z,4.63
2017-12-30T04:43:50.628Z,4.57
2017-12-30T04:44:59.484Z,4.56
2017-12-30T04:46:08.076Z,4.53
2017-12-30T04:47:16.681Z,4.5
2017-12-30T04:48:25.272Z,4.5
2017-12-30T04:49:33.881Z,4.53
2017-12-30T04:50:42.478Z,4.56
2017-12-30T04:51:51.066Z,4.53
2017-12-30T04:52:59.676Z,4.57
2017-12-30T04:54:08.277Z,4.49
2017-12-30T04:55:16.868Z,4.66
2017-12-30T04:56:25.472Z,4.6
2017-12-30T04:57:34.335Z,4.68
2017-12-30T04:58:42.925Z,4.63
2017-12-30T04:59:51.528Z,4.6
2017-12-30T05:01:00.138Z,4.67
2017-12-30T05:02:08.729Z,4.64
2017-12-30T05:03:17.332Z,4.66
2017-12-30T05:04:25.923Z,4.61
2017-12-30T05:05:34.528Z,4.52
2017-12-30T05:06:43.134Z,4.53
2017-12-30T05:07:51.725Z,4.52
2017-12-30T05:09:00.327Z,4.61
2017-12-30T05:10:08.936Z,4.63
2017-12-30T05:11:17.525Z,4.58
2017-12-30T05:12:26.122Z,4.66
2017-12-30T05:13:34.736Z,4.7
2017-12-30T05:14:43.328Z,4.64
2017-12-30T05:15:51.917Z,4.67
2017-12-30T05:17:00.519Z,4.66
2017-12-30T05:18:09.120Z,4.64
2017-12-30T05:19:17.725Z,4.63
2017-12-30T05:20:26.314Z,4.63
2017-12-30T05:21:34.914Z,4.56
2017-12-30T05:22:43.523Z,4.68
2017-12-30T05:23:52.403Z,4.67
2017-12-30T05:25:00.978Z,4.63
2017-12-30T05:26:09.585Z,4.63
2017-12-30T05:27:18.180Z,4.63
2017-12-30T05:28:27.031Z,4.67
2017-12-30T05:29:35.645Z,4.67
2017-12-30T05:30:44.247Z,4.6
2017-12-30T05:31:52.848Z,4.61
2017-12-30T05:33:01.444Z,4.66
2017-12-30T05:34:10.041Z,4.64
2017-12-30T05:35:18.648Z,4.53
2017-12-30T05:36:27.257Z,4.53
2017-12-30T05:37:36.100Z,4.53
2017-12-30T05:38:44.712Z,4.58
2017-12-30T05:39:53.309Z,4.56
2017-12-30T05:41:01.899Z,4.53
2017-12-30T05:42:10.502Z,4.58
2017-12-30T05:43:19.110Z,4.49
2017-12-30T05:44:27.703Z,4.49
2017-12-30T05:45:36.557Z,4.53
2017-12-30T05:46:45.170Z,4.64
2017-12-30T05:47:53.754Z,4.63
2017-12-30T05:49:02.353Z,4.63
2017-12-30T05:50:10.966Z,4.64
2017-12-30T05:51:19.557Z,4.61
2017-12-30T05:52:28.149Z,4.66
2017-12-30T05:53:36.757Z,4.67
2017-12-30T05:54:45.355Z,4.68
2017-12-30T05:55:53.946Z,4.66
2017-12-30T05:57:02.554Z,4.79
2017-12-30T05:58:11.154Z,4.83
2017-12-30T05:59:19.737Z,4.79
2017-12-30T06:00:28.347Z,4.78
2017-12-30T06:01:36.938Z,4.78
2017-12-30T06:02:45.547Z,4.78
2017-12-30T06:03:54.143Z,4.78
2017-12-30T06:05:02.729Z,4.82
2017-12-30T06:06:11.339Z,4.86
2017-12-30T06:07:19.940Z,4.86
2017-12-30T06:08:28.532Z,4.89
2017-12-30T06:09:37.136Z,4.9
2017-12-30T06:10:45.739Z,4.86
2017-12-30T06:11:54.334Z,4.86
2017-12-30T06:13:02.931Z,4.98
2017-12-30T06:14:11.545Z,4.92
2017-12-30T06:15:20.139Z,4.9
2017-12-30T06:16:28.739Z,4.97
2017-12-30T06:17:37.326Z,4.92
2017-12-30T06:18:45.931Z,4.94
2017-12-30T06:19:54.538Z,5
2017-12-30T06:21:03.125Z,5.07
2017-12-30T06:22:11.727Z,5.02
2017-12-30T06:23:20.337Z,5.01
2017-12-30T06:24:28.928Z,5.05
2017-12-30T06:25:37.531Z,4.97
2017-12-30T06:26:46.142Z,5.08
2017-12-30T06:27:54.734Z,5.01
2017-12-30T06:29:03.323Z,5.13
2017-12-30T06:30:11.926Z,5.13
2017-12-30T06:31:20.525Z,5.15
2017-12-30T06:32:29.130Z,5.18
2017-12-30T06:33:37.720Z,5.15
2017-12-30T06:34:46.317Z,5.15
2017-12-30T06:35:54.929Z,5.19
2017-12-30T06:37:03.519Z,5.19
2017-12-30T06:38:12.114Z,5.15
2017-12-30T06:39:20.721Z,5.22
2017-12-30T06:40:29.322Z,5.15
2017-12-30T06:41:37.906Z,5.2
2017-12-30T06:42:46.517Z,5.07
2017-12-30T06:43:55.123Z,5.15
2017-12-30T06:45:03.723Z,5.15
2017-12-30T06:46:12.318Z,5.16
2017-12-30T06:47:20.917Z,5.1
2017-12-30T06:48:29.525Z,5.12
2017-12-30T06:49:38.124Z,4.98
2017-12-30T06:50:46.711Z,5.15
2017-12-30T06:51:55.321Z,5.1
2017-12-30T06:53:03.921Z,5.1
2017-12-30T06:54:12.770Z,5.1
2017-12-30T06:55:21.376Z,4.97
2017-12-30T06:56:29.983Z,5.01
2017-12-30T06:57:38.573Z,5.1
2017-12-30T06:58:47.436Z,5.04
2017-12-30T06:59:56.030Z,5.07
2017-12-30T07:01:04.638Z,5
2017-12-30T07:02:13.239Z,5.02
2017-12-30T07:03:21.837Z,5.01
2017-12-30T07:04:30.954Z,4.9
2017-12-30T07:05:39.561Z,5.02
2017-12-30T07:06:48.147Z,4.87
2017-12-30T07:07:56.751Z,5.01
2017-12-30T07:09:05.364Z,4.97
2017-12-30T07:10:13.947Z,5
2017-12-30T07:11:22.547Z,4.98
2017-12-30T07:12:31.158Z,4.92
2017-12-30T07:13:39.753Z,4.95
2017-12-30T07:14:48.357Z,4.9
2017-12-30T07:15:56.948Z,4.97
2017-12-30T07:17:05.550Z,4.95
2017-12-30T07:18:14.162Z,4.89
2017-12-30T07:19:22.754Z,4.87
2017-12-30T07:20:31.354Z,4.9
2017-12-30T07:21:39.966Z,4.89
2017-12-30T07:22:48.564Z,4.92
2017-12-30T07:23:57.424Z,4.89
2017-12-30T07:25:06.030Z,4.87
2017-12-30T07:26:14.627Z,4.92
2017-12-30T07:27:23.217Z,4.87
2017-12-30T07:28:32.090Z,4.92
2017-12-30T07:29:40.687Z,4.9
2017-12-30T07:30:49.300Z,4.92
2017-12-30T07:31:57.896Z,4.92
2017-12-30T07:33:06.489Z,4.9
2017-12-30T07:34:15.361Z,4.97
2017-12-30T07:35:23.955Z,4.9
2017-12-30T07:36:32.545Z,4.84
2017-12-30T07:37:41.152Z,4.9
2017-12-30T07:38:49.752Z,4.84
2017-12-30T07:39:58.342Z,4.87
2017-12-30T07:41:06.948Z,4.74
2017-12-30T07:42:15.554Z,4.76
2017-12-30T07:43:24.143Z,4.82
2017-12-30T07:44:32.746Z,4.74
2017-12-30T07:45:41.668Z,4.83
2017-12-30T07:46:50.201Z,4.79
2017-12-30T07:47:58.799Z,4.75
2017-12-30T07:49:07.412Z,4.79
2017-12-30T07:50:16.004Z,4.7
2017-12-30T07:51:24.594Z,4.82
2017-12-30T07:52:33.204Z,4.78
2017-12-30T07:53:41.800Z,4.78
2017-12-30T07:54:50.392Z,4.82
2017-12-30T07:55:59.001Z,4.74
2017-12-30T07:57:07.603Z,4.74
2017-12-30T07:58:16.201Z,4.68
2017-12-30T07:59:24.795Z,4.67
2017-12-30T08:00:33.658Z,4.71
2017-12-30T08:01:42.264Z,4.7
2017-12-30T08:02:50.863Z,4.7
2017-12-30T08:03:59.706Z,4.67
2017-12-30T08:05:08.318Z,4.66
2017-12-30T08:06:16.920Z,4.64
2017-12-30T08:07:25.511Z,4.64
2017-12-30T08:08:34.115Z,4.66
2017-12-30T08:09:42.725Z,4.67
2017-12-30T08:10:51.312Z,4.64
2017-12-30T08:11:59.913Z,4.66
2017-12-30T08:13:08.511Z,4.66
2017-12-30T08:14:17.122Z,4.68
2017-12-30T08:15:25.724Z,4.67
2017-12-30T08:16:34.310Z,4.68
2017-12-30T08:17:42.927Z,4.71
2017-12-30T08:18:51.527Z,4.75
2017-12-30T08:20:00.116Z,4.76
2017-12-30T08:21:08.716Z,4.68
2017-12-30T08:22:17.326Z,4.64
2017-12-30T08:23:25.915Z,4.82
2017-12-30T08:24:34.515Z,4.67
2017-12-30T08:25:43.128Z,4.71
2017-12-30T08:26:51.720Z,4.76
2017-12-30T08:28:00.327Z,4.76
2017-12-30T08:29:08.917Z,4.7
2017-12-30T08:30:17.518Z,4.83
2017-12-30T08:31:26.131Z,4.82
2017-12-30T08:32:34.725Z,4.78
2017-12-30T08:33:43.318Z,4.75
2017-12-30T08:34:51.932Z,4.75
2017-12-30T08:36:00.523Z,4.76
2017-12-30T08:37:09.121Z,4.79
2017-12-30T08:38:17.731Z,4.79
2017-12-30T08:39:26.329Z,4.87
2017-12-30T08:40:34.916Z,4.67
2017-12-30T08:41:43.526Z,4.74
2017-12-30T08:42:52.123Z,4.83
2017-12-30T08:44:00.736Z,4.71
2017-12-30T08:45:09.594Z,4.76
2017-12-30T08:46:18.189Z,4.84
2017-12-30T08:47:26.801Z,4.84
2017-12-30T08:48:35.658Z,4.79
2017-12-30T08:49:44.245Z,4.79
2017-12-30T08:50:52.857Z,4.83
2017-12-30T08:52:01.460Z,4.86
2017-12-30T08:53:10.048Z,4.76
2017-12-30T08:54:18.918Z,4.82
2017-12-30T08:55:27.521Z,4.83
2017-12-30T08:56:36.380Z,4.84
2017-12-30T08:57:44.979Z,4.84
2017-12-30T08:58:53.824Z,4.87
2017-12-30T09:00:02.707Z,4.83
2017-12-30T09:01:11.311Z,4.83
2017-12-30T09:02:19.902Z,4.87
2017-12-30T09:03:28.509Z,4.82
2017-12-30T09:04:37.121Z,4.83
2017-12-30T09:05:45.705Z,4.83
2017-12-30T09:06:54.305Z,4.87
2017-12-30T09:08:02.914Z,4.9
2017-12-30T09:09:11.505Z,4.9
2017-12-30T09:10:20.105Z,4.89
2017-12-30T09:11:28.958Z,4.92
2017-12-30T09:12:37.567Z,4.9
2017-12-30T09:13:46.174Z,4.9
2017-12-30T09:14:54.765Z,4.9
2017-12-30T09:16:03.363Z,4.87
2017-12-30T09:17:12.238Z,4.89
2017-12-30T09:18:20.826Z,4.9
2017-12-30T09:19:29.429Z,4.92
2017-12-30T09:20:38.040Z,4.97
2017-12-30T09:21:46.632Z,4.94
2017-12-30T09:22:55.229Z,4.92
2017-12-30T09:24:03.838Z,4.92
2017-12-30T09:25:12.443Z,4.9
2017-12-30T09:26:21.308Z,4.97
2017-12-30T09:27:29.892Z,5.01
2017-12-30T09:28:38.752Z,4.87
2017-12-30T09:29:47.362Z,4.92
2017-12-30T09:30:55.953Z,4.95
2017-12-30T09:32:04.551Z,4.98
2017-12-30T09:33:13.424Z,4.97
2017-12-30T09:34:22.019Z,4.98
2017-12-30T09:35:30.606Z,5.05
2017-12-30T09:36:39.219Z,5.02
2017-12-30T09:37:47.821Z,4.95
2017-12-30T09:38:56.669Z,5.08
2017-12-30T09:40:05.273Z,4.97
2017-12-30T09:41:13.880Z,4.95
2017-12-30T09:42:22.469Z,4.94
2017-12-30T09:43:31.071Z,5.04
2017-12-30T09:44:39.680Z,5.02
2017-12-30T09:45:48.273Z,5.08
2017-12-30T09:46:56.869Z,5.04
2017-12-30T09:48:05.479Z,4.98
2017-12-30T09:49:14.074Z,5.04
2017-12-30T09:50:22.664Z,5
2017-12-30T09:51:31.278Z,4.92
2017-12-30T09:52:39.874Z,5.04
2017-12-30T09:53:48.466Z,5.07
2017-12-30T09:54:57.069Z,5.02
2017-12-30T09:56:05.666Z,5.01
2017-12-30T09:57:14.276Z,5
2017-12-30T09:58:22.895Z,5.05
2017-12-30T09:59:31.464Z,5.07
2017-12-30T10:00:40.073Z,5.08
2017-12-30T10:01:48.971Z,5.12
2017-12-30T10:02:57.522Z,5.16
2017-12-30T10:04:06.135Z,5.18
2017-12-30T10:05:14.739Z,5.18
2017-12-30T10:06:23.328Z,5.18
2017-12-30T10:07:31.933Z,5.16
2017-12-30T10:08:40.542Z,5.23
2017-12-30T10:09:49.409Z,5.22
2017-12-30T10:10:58.264Z,5.31
2017-12-30T10:12:06.853Z,5.31
2017-12-30T10:13:15.722Z,5.36
2017-12-30T10:14:24.328Z,5.31
2017-12-30T10:15:32.916Z,5.41
2017-12-30T10:16:41.518Z,5.43
2017-12-30T10:17:50.128Z,5.36
2017-12-30T10:18:58.967Z,5.44
2017-12-30T10:20:07.573Z,5.4
2017-12-30T10:21:16.177Z,5.41
2017-12-30T10:22:24.771Z,5.41
2017-12-30T10:23:33.368Z,5.46
2017-12-30T10:24:41.964Z,5.54
2017-12-30T10:25:50.569Z,5.51
2017-12-30T10:26:59.182Z,5.52
2017-12-30T10:28:07.766Z,5.64
2017-12-30T10:29:16.371Z,5.59
2017-12-30T10:30:24.981Z,5.65
2017-12-30T10:31:33.577Z,5.72
2017-12-30T10:32:42.171Z,5.67
2017-12-30T10:33:50.785Z,5.76
2017-12-30T10:34:59.376Z,5.79
2017-12-30T10:36:07.970Z,5.81
2017-12-30T10:37:16.579Z,5.9
2017-12-30T10:38:25.175Z,5.87
2017-12-30T10:39:33.786Z,5.84
2017-12-30T10:40:42.631Z,5.92
2017-12-30T10:41:51.226Z,5.88
2017-12-30T10:43:00.097Z,5.91
2017-12-30T10:44:08.689Z,5.87
2017-12-30T10:45:17.284Z,5.9
2017-12-30T10:46:25.892Z,5.95
2017-12-30T10:47:34.492Z,6.01
2017-12-30T10:48:43.080Z,5.97
2017-12-30T10:49:51.692Z,5.97
2017-12-30T10:51:00.293Z,6.05
2017-12-30T10:52:08.886Z,6.15
2017-12-30T10:53:17.493Z,6.1
2017-12-30T10:54:26.088Z,6.1
2017-12-30T10:55:34.699Z,6.19
2017-12-30T10:56:43.298Z,6.19
2017-12-30T10:57:51.888Z,6.17
2017-12-30T10:59:00.494Z,6.26
2017-12-30T11:00:09.099Z,6.2
2017-12-30T11:01:17.689Z,6.2
2017-12-30T11:02:26.297Z,6.28
2017-12-30T11:03:34.904Z,6.31
2017-12-30T11:04:43.493Z,6.34
2017-12-30T11:05:52.095Z,6.36
2017-12-30T11:07:00.706Z,6.52
2017-12-30T11:08:09.300Z,6.5
2017-12-30T11:09:17.903Z,6.53
2017-12-30T11:10:26.749Z,6.53
2017-12-30T11:11:35.615Z,6.57
2017-12-30T11:12:44.221Z,6.56
2017-12-30T11:13:52.814Z,6.59
2017-12-30T11:15:01.415Z,6.57
2017-12-30T11:16:10.028Z,6.68
2017-12-30T11:17:18.877Z,6.74
2017-12-30T11:18:27.476Z,6.7
2017-12-30T11:19:36.086Z,6.78
2017-12-30T11:20:44.680Z,6.74
2017-12-30T11:21:53.276Z,6.78
2017-12-30T11:23:01.874Z,6.9
2017-12-30T11:24:10.476Z,7
2017-12-30T11:25:19.090Z,6.86
2017-12-30T11:26:27.680Z,7
2017-12-30T11:27:36.280Z,7.04
2017-12-30T11:28:44.887Z,7.04
2017-12-30T11:29:53.485Z,7.07
2017-12-30T11:31:02.077Z,7.15
2017-12-30T11:32:10.689Z,7.15
2017-12-30T11:33:19.289Z,7.15
2017-12-30T11:34:27.885Z,7.18
2017-12-30T11:35:36.496Z,7.31
2017-12-30T11:36:45.097Z,7.22
2017-12-30T11:37:53.688Z,7.26
2017-12-30T11:39:02.296Z,7.32
2017-12-30T11:40:10.908Z,7.32
2017-12-30T11:41:19.495Z,7.39
2017-12-30T11:42:28.101Z,7.43
2017-12-30T11:43:36.708Z,7.39
2017-12-30T11:44:45.301Z,7.46
2017-12-30T11:45:53.897Z,7.5
2017-12-30T11:47:02.772Z,7.5
2017-12-30T11:48:11.625Z,7.46
2017-12-30T11:49:20.221Z,7.51
2017-12-30T11:50:28.834Z,7.59
2017-12-30T11:51:37.434Z,7.66
2017-12-30T11:52:46.042Z,7.75
2017-12-30T11:53:54.631Z,7.78
2017-12-30T11:55:03.228Z,7.83
2017-12-30T11:56:11.840Z,7.87
2017-12-30T11:57:20.439Z,7.81
2017-12-30T11:58:29.035Z,7.85
2017-12-30T11:59:37.648Z,7.95
2017-12-30T12:00:46.250Z,8.02
2017-12-30T12:01:54.835Z,8.03
2017-12-30T12:03:03.445Z,8.03
2017-12-30T12:04:12.054Z,8.08
2017-12-30T12:05:20.686Z,8.16
2017-12-30T12:06:29.253Z,8.2
2017-12-30T12:07:37.845Z,8.16
2017-12-30T12:08:46.459Z,8.26
2017-12-30T12:09:55.058Z,8.32
2017-12-30T12:11:03.652Z,8.32
2017-12-30T12:12:12.262Z,8.38
2017-12-30T12:13:20.866Z,8.44
2017-12-30T12:14:29.456Z,8.46
2017-12-30T12:15:38.069Z,8.49
2017-12-30T12:16:46.679Z,8.52
2017-12-30T12:17:55.271Z,8.6
2017-12-30T12:19:03.877Z,8.59
2017-12-30T12:20:12.490Z,8.72
2017-12-30T12:21:21.088Z,8.71
2017-12-30T12:22:29.692Z,8.77
2017-12-30T12:23:38.278Z,8.84
2017-12-30T12:24:46.889Z,8.9
2017-12-30T12:25:55.495Z,8.78
2017-12-30T12:27:04.093Z,8.87
2017-12-30T12:28:12.696Z,8.9
2017-12-30T12:29:21.322Z,9
2017-12-30T12:30:29.906Z,8.99
2017-12-30T12:31:38.505Z,8.99
2017-12-30T12:32:47.118Z,9.09
2017-12-30T12:33:55.715Z,9.08
2017-12-30T12:35:04.583Z,9.21
2017-12-30T12:36:13.190Z,9.16
2017-12-30T12:37:21.805Z,9.19
2017-12-30T12:38:30.413Z,9.19
2017-12-30T12:39:39.267Z,9.26
2017-12-30T12:40:47.867Z,9.22
2017-12-30T12:41:56.480Z,9.33
2017-12-30T12:43:05.079Z,9.36
2017-12-30T12:44:13.678Z,9.31
2017-12-30T12:45:22.292Z,9.34
2017-12-30T12:46:30.899Z,9.33
2017-12-30T12:47:39.486Z,9.44
2017-12-30T12:48:48.099Z,9.45
2017-12-30T12:49:56.709Z,9.44
2017-12-30T12:51:05.316Z,9.4
2017-12-30T12:52:13.914Z,9.56
2017-12-30T12:53:22.514Z,9.58
2017-12-30T12:54:31.386Z,9.64
2017-12-30T12:55:39.986Z,9.64
2017-12-30T12:56:48.578Z,9.73
2017-12-30T12:57:57.194Z,9.72
2017-12-30T12:59:05.803Z,9.85
2017-12-30T13:00:14.403Z,9.87
2017-12-30T13:01:23.010Z,9.91
2017-12-30T13:02:31.618Z,9.97
2017-12-30T13:03:40.209Z,9.91
2017-12-30T13:04:48.816Z,10
2017-12-30T13:05:57.674Z,10.03
2017-12-30T13:07:06.290Z,10
2017-12-30T13:08:14.895Z,10.07
2017-12-30T13:09:23.485Z,10.21
2017-12-30T13:10:32.093Z,10.18
2017-12-30T13:11:40.704Z,10.17
2017-12-30T13:12:49.299Z,10.13
2017-12-30T13:13:57.902Z,10.17
2017-12-30T13:15:06.516Z,10.3
2017-12-30T13:16:15.414Z,10.34
2017-12-30T13:17:24.229Z,10.34
2017-12-30T13:18:32.845Z,10.36
2017-12-30T13:19:41.442Z,10.36
2017-12-30T13:20:50.055Z,10.48
2017-12-30T13:21:58.647Z,10.48
2017-12-30T13:23:07.252Z,10.58
2017-12-30T13:24:15.872Z,10.55
2017-12-30T13:25:24.463Z,10.55
2017-12-30T13:26:33.347Z,10.61
2017-12-30T13:27:41.677Z,10.67
2017-12-30T13:28:50.276Z,10.67
2017-12-30T13:29:59.131Z,10.62
2017-12-30T13:31:07.760Z,10.61
2017-12-30T13:32:16.347Z,10.58
2017-12-30T13:33:24.937Z,10.64
2017-12-30T13:34:33.554Z,10.62
2017-12-30T13:35:42.421Z,10.62
2017-12-30T13:36:51.018Z,10.62
2017-12-30T13:37:59.887Z,10.64
2017-12-30T13:39:08.548Z,10.72
2017-12-30T13:40:17.093Z,10.72
2017-12-30T13:41:25.700Z,10.77
2017-12-30T13:42:34.313Z,10.77
2017-12-30T13:43:42.910Z,10.79
2017-12-30T13:44:51.514Z,10.8
2017-12-30T13:46:00.127Z,10.87
2017-12-30T13:47:08.727Z,10.84
2017-12-30T13:48:17.321Z,10.9
2017-12-30T13:49:25.931Z,11
2017-12-30T13:50:34.536Z,11
2017-12-30T13:51:43.149Z,11.01
2017-12-30T13:52:51.746Z,10.97
2017-12-30T13:54:00.603Z,11.01
2017-12-30T13:55:09.215Z,11.04
2017-12-30T13:56:17.814Z,11.07
2017-12-30T13:57:26.414Z,11.13
2017-12-30T13:58:35.030Z,11.1
2017-12-30T13:59:43.630Z,11.15
2017-12-30T14:00:52.225Z,11.13
2017-12-30T14:02:00.841Z,11.16
2017-12-30T14:03:09.447Z,11.22
2017-12-30T14:04:18.052Z,11.23
2017-12-30T14:05:26.654Z,11.27
2017-12-30T14:06:35.255Z,11.4
2017-12-30T14:07:43.872Z,11.44
2017-12-30T14:08:52.476Z,11.37
2017-12-30T14:10:01.327Z,11.44
2017-12-30T14:11:09.943Z,11.43
2017-12-30T14:12:18.809Z,11.37
2017-12-30T14:13:27.408Z,11.41
2017-12-30T14:14:36.016Z,11.38
2017-12-30T14:15:44.628Z,11.43
2017-12-30T14:16:53.221Z,11.41
2017-12-30T14:18:01.828Z,11.31
2017-12-30T14:19:10.429Z,11.43
2017-12-30T14:20:19.043Z,11.4
2017-12-30T14:21:27.650Z,11.43
2017-12-30T14:22:36.246Z,11.48
2017-12-30T14:23:45.117Z,11.43
2017-12-30T14:24:53.733Z,11.44
2017-12-30T14:26:02.328Z,11.49
2017-12-30T14:27:10.933Z,11.53
2017-12-30T14:28:19.543Z,11.44
2017-12-30T14:29:28.141Z,11.49
2017-12-30T14:30:36.744Z,11.49
2017-12-30T14:31:45.363Z,11.49
2017-12-30T14:32:53.963Z,11.56
2017-12-30T14:34:02.564Z,11.52
2017-12-30T14:35:11.180Z,11.56
2017-12-30T14:36:19.781Z,11.45
2017-12-30T14:37:28.372Z,11.52
2017-12-30T14:38:36.992Z,11.56
2017-12-30T14:39:45.602Z,11.65
2017-12-30T14:40:54.200Z,11.58
2017-12-30T14:42:02.809Z,11.56
2017-12-30T14:43:11.422Z,11.58
2017-12-30T14:44:20.018Z,11.62
2017-12-30T14:45:28.628Z,11.58
2017-12-30T14:46:37.245Z,11.62
2017-12-30T14:47:45.854Z,11.49
2017-12-30T14:48:54.455Z,11.48
2017-12-30T14:50:03.046Z,11.56
2017-12-30T14:51:11.657Z,11.51
2017-12-30T14:52:20.266Z,11.45
2017-12-30T14:53:28.859Z,11.55
2017-12-30T14:54:37.468Z,11.53
2017-12-30T14:55:46.080Z,11.51
2017-12-30T14:56:54.677Z,11.49
2017-12-30T14:58:03.279Z,11.48
2017-12-30T14:59:11.895Z,11.45
2017-12-30T15:00:20.492Z,11.55
2017-12-30T15:01:29.090Z,11.55
2017-12-30T15:02:37.960Z,11.52
2017-12-30T15:03:46.565Z,11.59
2017-12-30T15:04:55.184Z,11.71
2017-12-30T15:06:03.776Z,11.65
2017-12-30T15:07:12.381Z,11.71
2017-12-30T15:08:21.002Z,11.7
2017-12-30T15:09:29.597Z,11.74
2017-12-30T15:10:38.197Z,11.65
2017-12-30T15:11:47.069Z,11.6
2017-12-30T15:12:55.949Z,11.65